sensor_id;sensor_type;location;lat;lon;timestamp;P1;durP1;ratioP1;P2;durP2;ratioP2
17283;SDS011;8760;52.248;20.952;2023-03-21T00:02:08;35.87;;;21.40;;
17283;SDS011;8760;52.248;20.952;2023-03-21T00:04:35;33.50;;;21.20;;
17283;SDS011;8760;52.248;20.952;2023-03-21T00:07:02;35.43;;;21.10;;
17283;SDS011;8760;52.248;20.952;2023-03-21T00:09:29;34.63;;;21.47;;
17283;SDS011;8760;52.248;20.952;2023-03-21T00:11:56;35.90;;;21.33;;
17283;SDS011;8760;52.248;20.952;2023-03-21T00:14:26;36.10;;;21.53;;
17283;SDS011;8760;52.248;20.952;2023-03-21T00:16:56;37.17;;;22.27;;
17283;SDS011;8760;52.248;20.952;2023-03-21T00:19:23;35.70;;;21.23;;
17283;SDS011;8760;52.248;20.952;2023-03-21T00:21:50;38.97;;;21.63;;
17283;SDS011;8760;52.248;20.952;2023-03-21T00:24:19;33.67;;;21.33;;
17283;SDS011;8760;52.248;20.952;2023-03-21T00:26:47;32.90;;;21.10;;
17283;SDS011;8760;52.248;20.952;2023-03-21T00:29:17;33.00;;;21.10;;
17283;SDS011;8760;52.248;20.952;2023-03-21T00:31:46;37.53;;;22.90;;
17283;SDS011;8760;52.248;20.952;2023-03-21T00:34:14;35.17;;;22.63;;
17283;SDS011;8760;52.248;20.952;2023-03-21T00:36:42;35.70;;;21.63;;
17283;SDS011;8760;52.248;20.952;2023-03-21T00:39:09;36.30;;;22.03;;
17283;SDS011;8760;52.248;20.952;2023-03-21T00:41:36;38.20;;;21.97;;
17283;SDS011;8760;52.248;20.952;2023-03-21T00:44:03;38.03;;;20.77;;
17283;SDS011;8760;52.248;20.952;2023-03-21T00:46:30;36.97;;;21.90;;
17283;SDS011;8760;52.248;20.952;2023-03-21T00:48:59;36.20;;;22.33;;
17283;SDS011;8760;52.248;20.952;2023-03-21T00:51:28;37.10;;;22.80;;
17283;SDS011;8760;52.248;20.952;2023-03-21T00:53:56;38.83;;;23.20;;
17283;SDS011;8760;52.248;20.952;2023-03-21T00:56:23;36.30;;;21.90;;
17283;SDS011;8760;52.248;20.952;2023-03-21T00:58:50;38.93;;;23.00;;
17283;SDS011;8760;52.248;20.952;2023-03-21T01:01:18;38.30;;;23.13;;
17283;SDS011;8760;52.248;20.952;2023-03-21T01:03:45;41.67;;;23.53;;
17283;SDS011;8760;52.248;20.952;2023-03-21T01:06:15;37.50;;;22.00;;
17283;SDS011;8760;52.248;20.952;2023-03-21T01:08:46;40.27;;;22.23;;
17283;SDS011;8760;52.248;20.952;2023-03-21T01:11:17;39.33;;;23.23;;
17283;SDS011;8760;52.248;20.952;2023-03-21T01:13:45;38.63;;;22.30;;
17283;SDS011;8760;52.248;20.952;2023-03-21T01:16:12;36.57;;;21.63;;
17283;SDS011;8760;52.248;20.952;2023-03-21T01:18:40;38.03;;;23.27;;
17283;SDS011;8760;52.248;20.952;2023-03-21T01:21:08;38.87;;;22.83;;
17283;SDS011;8760;52.248;20.952;2023-03-21T01:23:37;39.97;;;22.43;;
17283;SDS011;8760;52.248;20.952;2023-03-21T01:26:06;36.33;;;21.83;;
17283;SDS011;8760;52.248;20.952;2023-03-21T01:28:35;37.20;;;21.87;;
17283;SDS011;8760;52.248;20.952;2023-03-21T01:31:03;37.63;;;22.43;;
17283;SDS011;8760;52.248;20.952;2023-03-21T01:33:32;36.40;;;21.43;;
17283;SDS011;8760;52.248;20.952;2023-03-21T01:35:59;38.30;;;22.30;;
17283;SDS011;8760;52.248;20.952;2023-03-21T01:38:26;39.80;;;21.73;;
17283;SDS011;8760;52.248;20.952;2023-03-21T01:40:53;40.43;;;22.73;;
17283;SDS011;8760;52.248;20.952;2023-03-21T01:43:23;43.83;;;23.67;;
17283;SDS011;8760;52.248;20.952;2023-03-21T01:46:05;40.20;;;22.20;;
17283;SDS011;8760;52.248;20.952;2023-03-21T01:48:45;41.13;;;22.27;;
17283;SDS011;8760;52.248;20.952;2023-03-21T01:51:15;39.30;;;21.97;;
17283;SDS011;8760;52.248;20.952;2023-03-21T01:53:44;36.23;;;21.30;;
17283;SDS011;8760;52.248;20.952;2023-03-21T01:56:13;36.67;;;21.77;;
17283;SDS011;8760;52.248;20.952;2023-03-21T01:58:46;44.53;;;22.57;;
17283;SDS011;8760;52.248;20.952;2023-03-21T02:01:14;34.20;;;21.13;;
17283;SDS011;8760;52.248;20.952;2023-03-21T02:03:41;38.50;;;22.63;;
17283;SDS011;8760;52.248;20.952;2023-03-21T02:06:17;38.77;;;22.13;;
17283;SDS011;8760;52.248;20.952;2023-03-21T02:08:54;37.73;;;22.37;;
17283;SDS011;8760;52.248;20.952;2023-03-21T02:11:23;35.37;;;20.77;;
17283;SDS011;8760;52.248;20.952;2023-03-21T02:13:52;35.83;;;20.57;;
17283;SDS011;8760;52.248;20.952;2023-03-21T02:16:21;35.93;;;21.07;;
17283;SDS011;8760;52.248;20.952;2023-03-21T02:18:55;33.90;;;21.07;;
17283;SDS011;8760;52.248;20.952;2023-03-21T02:27:23;35.07;;;20.10;;
17283;SDS011;8760;52.248;20.952;2023-03-21T02:32:54;32.23;;;18.73;;
17283;SDS011;8760;52.248;20.952;2023-03-21T02:35:46;31.40;;;18.80;;
17283;SDS011;8760;52.248;20.952;2023-03-21T02:38:26;29.40;;;18.70;;
17283;SDS011;8760;52.248;20.952;2023-03-21T02:41:00;29.77;;;18.40;;
17283;SDS011;8760;52.248;20.952;2023-03-21T02:43:31;31.40;;;18.07;;
17283;SDS011;8760;52.248;20.952;2023-03-21T02:46:06;26.57;;;17.23;;
17283;SDS011;8760;52.248;20.952;2023-03-21T02:48:38;26.30;;;18.17;;
17283;SDS011;8760;52.248;20.952;2023-03-21T02:51:11;25.67;;;17.63;;
17283;SDS011;8760;52.248;20.952;2023-03-21T02:53:44;27.60;;;17.33;;
17283;SDS011;8760;52.248;20.952;2023-03-21T02:56:15;30.73;;;18.93;;
17283;SDS011;8760;52.248;20.952;2023-03-21T02:58:44;28.33;;;19.07;;
17283;SDS011;8760;52.248;20.952;2023-03-21T03:01:12;27.33;;;17.50;;
17283;SDS011;8760;52.248;20.952;2023-03-21T03:03:38;26.50;;;17.27;;
17283;SDS011;8760;52.248;20.952;2023-03-21T03:06:08;31.07;;;18.40;;
17283;SDS011;8760;52.248;20.952;2023-03-21T03:08:42;27.23;;;18.27;;
17283;SDS011;8760;52.248;20.952;2023-03-21T03:11:23;28.43;;;17.87;;
17283;SDS011;8760;52.248;20.952;2023-03-21T03:13:56;29.07;;;18.43;;
17283;SDS011;8760;52.248;20.952;2023-03-21T03:16:33;31.67;;;18.87;;
17283;SDS011;8760;52.248;20.952;2023-03-21T03:19:06;31.30;;;18.30;;
17283;SDS011;8760;52.248;20.952;2023-03-21T03:21:37;25.43;;;17.30;;
17283;SDS011;8760;52.248;20.952;2023-03-21T03:24:09;28.83;;;17.47;;
17283;SDS011;8760;52.248;20.952;2023-03-21T03:26:42;26.97;;;17.90;;
17283;SDS011;8760;52.248;20.952;2023-03-21T03:29:14;27.80;;;18.37;;
17283;SDS011;8760;52.248;20.952;2023-03-21T03:31:45;27.40;;;17.60;;
17283;SDS011;8760;52.248;20.952;2023-03-21T03:34:15;26.33;;;17.10;;
17283;SDS011;8760;52.248;20.952;2023-03-21T03:36:46;25.60;;;16.30;;
17283;SDS011;8760;52.248;20.952;2023-03-21T03:39:21;26.23;;;16.30;;
17283;SDS011;8760;52.248;20.952;2023-03-21T03:41:57;27.00;;;16.87;;
17283;SDS011;8760;52.248;20.952;2023-03-21T03:44:26;29.37;;;17.70;;
17283;SDS011;8760;52.248;20.952;2023-03-21T03:46:55;27.43;;;17.03;;
17283;SDS011;8760;52.248;20.952;2023-03-21T03:49:26;25.27;;;17.17;;
17283;SDS011;8760;52.248;20.952;2023-03-21T03:51:58;27.93;;;17.03;;
17283;SDS011;8760;52.248;20.952;2023-03-21T03:54:31;24.87;;;17.10;;
17283;SDS011;8760;52.248;20.952;2023-03-21T03:57:02;25.07;;;16.67;;
17283;SDS011;8760;52.248;20.952;2023-03-21T03:59:30;26.00;;;17.27;;
17283;SDS011;8760;52.248;20.952;2023-03-21T04:02:00;25.87;;;17.13;;
17283;SDS011;8760;52.248;20.952;2023-03-21T04:04:27;23.13;;;15.57;;
17283;SDS011;8760;52.248;20.952;2023-03-21T04:06:56;25.47;;;17.27;;
17283;SDS011;8760;52.248;20.952;2023-03-21T04:09:23;26.93;;;17.30;;
17283;SDS011;8760;52.248;20.952;2023-03-21T04:11:51;25.75;;;17.50;;
17283;SDS011;8760;52.248;20.952;2023-03-21T04:14:18;23.50;;;16.50;;
17283;SDS011;8760;52.248;20.952;2023-03-21T04:16:45;24.53;;;17.10;;
17283;SDS011;8760;52.248;20.952;2023-03-21T04:19:13;21.60;;;15.80;;
17283;SDS011;8760;52.248;20.952;2023-03-21T04:21:40;25.73;;;16.23;;
17283;SDS011;8760;52.248;20.952;2023-03-21T04:24:08;26.90;;;16.43;;
17283;SDS011;8760;52.248;20.952;2023-03-21T04:26:36;21.77;;;15.97;;
17283;SDS011;8760;52.248;20.952;2023-03-21T04:29:04;24.20;;;16.43;;
17283;SDS011;8760;52.248;20.952;2023-03-21T04:31:31;28.30;;;16.87;;
17283;SDS011;8760;52.248;20.952;2023-03-21T04:34:02;24.87;;;16.17;;
17283;SDS011;8760;52.248;20.952;2023-03-21T04:36:33;26.87;;;17.30;;
17283;SDS011;8760;52.248;20.952;2023-03-21T04:39:07;23.83;;;16.03;;
17283;SDS011;8760;52.248;20.952;2023-03-21T04:41:36;25.63;;;16.73;;
17283;SDS011;8760;52.248;20.952;2023-03-21T04:44:05;25.73;;;16.93;;
17283;SDS011;8760;52.248;20.952;2023-03-21T04:46:34;23.83;;;15.57;;
17283;SDS011;8760;52.248;20.952;2023-03-21T04:49:01;20.80;;;14.93;;
17283;SDS011;8760;52.248;20.952;2023-03-21T04:51:29;22.87;;;16.37;;
17283;SDS011;8760;52.248;20.952;2023-03-21T04:53:56;23.37;;;16.13;;
17283;SDS011;8760;52.248;20.952;2023-03-21T04:56:23;23.10;;;15.37;;
17283;SDS011;8760;52.248;20.952;2023-03-21T04:58:56;24.53;;;15.50;;
17283;SDS011;8760;52.248;20.952;2023-03-21T05:01:25;22.53;;;13.93;;
17283;SDS011;8760;52.248;20.952;2023-03-21T05:03:54;20.47;;;14.17;;
17283;SDS011;8760;52.248;20.952;2023-03-21T05:06:22;18.50;;;13.50;;
17283;SDS011;8760;52.248;20.952;2023-03-21T05:08:50;20.63;;;14.27;;
17283;SDS011;8760;52.248;20.952;2023-03-21T05:11:17;21.30;;;14.20;;
17283;SDS011;8760;52.248;20.952;2023-03-21T05:13:44;19.00;;;13.40;;
17283;SDS011;8760;52.248;20.952;2023-03-21T05:16:11;18.53;;;13.13;;
17283;SDS011;8760;52.248;20.952;2023-03-21T05:18:39;17.97;;;13.17;;
17283;SDS011;8760;52.248;20.952;2023-03-21T05:21:06;18.20;;;13.17;;
17283;SDS011;8760;52.248;20.952;2023-03-21T05:23:34;19.53;;;13.80;;
17283;SDS011;8760;52.248;20.952;2023-03-21T05:26:03;18.20;;;13.47;;
17283;SDS011;8760;52.248;20.952;2023-03-21T05:28:31;18.93;;;13.47;;
17283;SDS011;8760;52.248;20.952;2023-03-21T05:31:01;17.83;;;12.80;;
17283;SDS011;8760;52.248;20.952;2023-03-21T05:33:28;17.27;;;13.00;;
17283;SDS011;8760;52.248;20.952;2023-03-21T05:35:56;20.20;;;13.73;;
17283;SDS011;8760;52.248;20.952;2023-03-21T05:38:24;19.00;;;13.40;;
17283;SDS011;8760;52.248;20.952;2023-03-21T05:40:52;20.53;;;13.57;;
17283;SDS011;8760;52.248;20.952;2023-03-21T05:43:19;20.20;;;12.80;;
17283;SDS011;8760;52.248;20.952;2023-03-21T05:45:46;19.03;;;13.67;;
17283;SDS011;8760;52.248;20.952;2023-03-21T05:48:13;20.77;;;13.90;;
17283;SDS011;8760;52.248;20.952;2023-03-21T05:50:40;24.17;;;14.13;;
17283;SDS011;8760;52.248;20.952;2023-03-21T05:53:09;19.30;;;13.60;;
17283;SDS011;8760;52.248;20.952;2023-03-21T05:55:36;21.97;;;14.33;;
17283;SDS011;8760;52.248;20.952;2023-03-21T05:58:03;17.57;;;12.53;;
17283;SDS011;8760;52.248;20.952;2023-03-21T06:00:30;18.47;;;13.27;;
17283;SDS011;8760;52.248;20.952;2023-03-21T06:02:57;16.70;;;12.63;;
17283;SDS011;8760;52.248;20.952;2023-03-21T06:05:24;16.97;;;12.13;;
17283;SDS011;8760;52.248;20.952;2023-03-21T06:07:51;17.33;;;12.03;;
17283;SDS011;8760;52.248;20.952;2023-03-21T06:10:19;15.37;;;11.57;;
17283;SDS011;8760;52.248;20.952;2023-03-21T06:12:46;18.10;;;12.00;;
17283;SDS011;8760;52.248;20.952;2023-03-21T06:15:13;17.83;;;12.37;;
17283;SDS011;8760;52.248;20.952;2023-03-21T06:17:40;20.30;;;12.73;;
17283;SDS011;8760;52.248;20.952;2023-03-21T06:20:08;17.73;;;11.97;;
17283;SDS011;8760;52.248;20.952;2023-03-21T06:22:36;13.27;;;10.80;;
17283;SDS011;8760;52.248;20.952;2023-03-21T06:25:03;17.50;;;11.87;;
17283;SDS011;8760;52.248;20.952;2023-03-21T06:27:33;16.07;;;11.47;;
17283;SDS011;8760;52.248;20.952;2023-03-21T06:30:00;16.03;;;10.43;;
17283;SDS011;8760;52.248;20.952;2023-03-21T06:32:27;14.33;;;9.77;;
17283;SDS011;8760;52.248;20.952;2023-03-21T06:34:54;12.73;;;9.83;;
17283;SDS011;8760;52.248;20.952;2023-03-21T06:37:21;12.67;;;9.97;;
17283;SDS011;8760;52.248;20.952;2023-03-21T06:39:48;14.20;;;10.33;;
17283;SDS011;8760;52.248;20.952;2023-03-21T06:42:15;13.63;;;10.10;;
17283;SDS011;8760;52.248;20.952;2023-03-21T06:44:43;15.90;;;10.40;;
17283;SDS011;8760;52.248;20.952;2023-03-21T06:47:10;15.63;;;10.53;;
17283;SDS011;8760;52.248;20.952;2023-03-21T06:49:37;13.33;;;9.50;;
17283;SDS011;8760;52.248;20.952;2023-03-21T06:52:05;13.23;;;8.80;;
17283;SDS011;8760;52.248;20.952;2023-03-21T06:54:32;12.83;;;9.33;;
17283;SDS011;8760;52.248;20.952;2023-03-21T06:56:58;11.90;;;9.43;;
17283;SDS011;8760;52.248;20.952;2023-03-21T06:59:25;10.50;;;8.30;;
17283;SDS011;8760;52.248;20.952;2023-03-21T07:01:54;11.60;;;8.87;;
17283;SDS011;8760;52.248;20.952;2023-03-21T07:04:21;14.77;;;9.70;;
17283;SDS011;8760;52.248;20.952;2023-03-21T07:06:48;12.87;;;9.50;;
17283;SDS011;8760;52.248;20.952;2023-03-21T07:09:15;13.10;;;9.43;;
17283;SDS011;8760;52.248;20.952;2023-03-21T07:11:45;12.33;;;9.10;;
17283;SDS011;8760;52.248;20.952;2023-03-21T07:14:14;12.87;;;9.17;;
17283;SDS011;8760;52.248;20.952;2023-03-21T07:16:41;11.70;;;8.97;;
17283;SDS011;8760;52.248;20.952;2023-03-21T07:19:09;12.73;;;9.13;;
17283;SDS011;8760;52.248;20.952;2023-03-21T07:21:36;11.53;;;8.47;;
17283;SDS011;8760;52.248;20.952;2023-03-21T07:24:03;12.43;;;8.77;;
17283;SDS011;8760;52.248;20.952;2023-03-21T07:26:30;11.73;;;8.10;;
17283;SDS011;8760;52.248;20.952;2023-03-21T07:28:57;10.60;;;8.30;;
17283;SDS011;8760;52.248;20.952;2023-03-21T07:31:24;12.97;;;8.53;;
17283;SDS011;8760;52.248;20.952;2023-03-21T07:33:52;12.43;;;8.17;;
17283;SDS011;8760;52.248;20.952;2023-03-21T07:36:20;9.07;;;7.70;;
17283;SDS011;8760;52.248;20.952;2023-03-21T07:38:47;12.40;;;9.57;;
17283;SDS011;8760;52.248;20.952;2023-03-21T07:41:14;13.10;;;8.70;;
17283;SDS011;8760;52.248;20.952;2023-03-21T07:43:40;10.50;;;7.53;;
17283;SDS011;8760;52.248;20.952;2023-03-21T07:46:07;12.07;;;8.20;;
17283;SDS011;8760;52.248;20.952;2023-03-21T07:48:34;12.27;;;8.27;;
17283;SDS011;8760;52.248;20.952;2023-03-21T07:51:02;8.87;;;7.40;;
17283;SDS011;8760;52.248;20.952;2023-03-21T07:53:31;10.70;;;8.00;;
17283;SDS011;8760;52.248;20.952;2023-03-21T07:55:58;10.53;;;7.57;;
17283;SDS011;8760;52.248;20.952;2023-03-21T07:58:25;9.67;;;6.87;;
17283;SDS011;8760;52.248;20.952;2023-03-21T08:00:53;8.80;;;7.00;;
17283;SDS011;8760;52.248;20.952;2023-03-21T08:03:20;10.07;;;7.40;;
17283;SDS011;8760;52.248;20.952;2023-03-21T08:05:50;9.17;;;7.50;;
17283;SDS011;8760;52.248;20.952;2023-03-21T08:08:17;10.37;;;6.73;;
17283;SDS011;8760;52.248;20.952;2023-03-21T08:10:45;12.93;;;7.27;;
17283;SDS011;8760;52.248;20.952;2023-03-21T08:13:12;7.63;;;6.53;;
17283;SDS011;8760;52.248;20.952;2023-03-21T08:15:39;8.93;;;7.10;;
17283;SDS011;8760;52.248;20.952;2023-03-21T08:18:07;10.23;;;7.60;;
17283;SDS011;8760;52.248;20.952;2023-03-21T08:20:34;10.40;;;8.27;;
17283;SDS011;8760;52.248;20.952;2023-03-21T08:23:01;8.63;;;6.80;;
17283;SDS011;8760;52.248;20.952;2023-03-21T08:25:28;9.63;;;8.07;;
17283;SDS011;8760;52.248;20.952;2023-03-21T08:27:57;9.80;;;7.50;;
17283;SDS011;8760;52.248;20.952;2023-03-21T08:30:25;9.47;;;7.20;;
17283;SDS011;8760;52.248;20.952;2023-03-21T08:32:55;7.97;;;6.40;;
17283;SDS011;8760;52.248;20.952;2023-03-21T08:35:22;7.77;;;6.80;;
17283;SDS011;8760;52.248;20.952;2023-03-21T08:37:49;8.20;;;6.70;;
17283;SDS011;8760;52.248;20.952;2023-03-21T08:40:17;8.53;;;7.40;;
17283;SDS011;8760;52.248;20.952;2023-03-21T08:42:44;8.67;;;6.87;;
17283;SDS011;8760;52.248;20.952;2023-03-21T08:45:13;7.03;;;6.33;;
17283;SDS011;8760;52.248;20.952;2023-03-21T08:47:41;7.60;;;6.17;;
17283;SDS011;8760;52.248;20.952;2023-03-21T08:50:10;7.07;;;6.00;;
17283;SDS011;8760;52.248;20.952;2023-03-21T08:52:38;8.50;;;6.50;;
17283;SDS011;8760;52.248;20.952;2023-03-21T08:55:05;8.47;;;6.80;;
17283;SDS011;8760;52.248;20.952;2023-03-21T08:57:33;10.40;;;6.93;;
17283;SDS011;8760;52.248;20.952;2023-03-21T09:00:00;7.73;;;6.87;;
17283;SDS011;8760;52.248;20.952;2023-03-21T09:02:32;7.57;;;6.33;;
17283;SDS011;8760;52.248;20.952;2023-03-21T09:04:59;8.40;;;6.97;;
17283;SDS011;8760;52.248;20.952;2023-03-21T09:07:26;6.93;;;5.87;;
17283;SDS011;8760;52.248;20.952;2023-03-21T09:09:53;7.23;;;6.33;;
17283;SDS011;8760;52.248;20.952;2023-03-21T09:12:20;9.67;;;7.27;;
17283;SDS011;8760;52.248;20.952;2023-03-21T09:14:47;8.97;;;7.47;;
17283;SDS011;8760;52.248;20.952;2023-03-21T09:17:14;8.40;;;6.83;;
17283;SDS011;8760;52.248;20.952;2023-03-21T09:19:43;7.53;;;6.73;;
17283;SDS011;8760;52.248;20.952;2023-03-21T09:22:11;9.57;;;6.53;;
17283;SDS011;8760;52.248;20.952;2023-03-21T09:24:39;6.57;;;5.87;;
17283;SDS011;8760;52.248;20.952;2023-03-21T09:27:06;7.03;;;5.77;;
17283;SDS011;8760;52.248;20.952;2023-03-21T09:29:34;8.47;;;6.50;;
17283;SDS011;8760;52.248;20.952;2023-03-21T09:32:01;7.07;;;5.70;;
17283;SDS011;8760;52.248;20.952;2023-03-21T09:34:30;7.23;;;5.67;;
17283;SDS011;8760;52.248;20.952;2023-03-21T09:36:58;7.80;;;6.07;;
17283;SDS011;8760;52.248;20.952;2023-03-21T09:39:26;6.10;;;5.17;;
17283;SDS011;8760;52.248;20.952;2023-03-21T09:41:59;6.50;;;5.57;;
17283;SDS011;8760;52.248;20.952;2023-03-21T09:44:41;8.17;;;6.17;;
17283;SDS011;8760;52.248;20.952;2023-03-21T09:47:17;6.73;;;5.77;;
17283;SDS011;8760;52.248;20.952;2023-03-21T09:49:53;7.73;;;6.27;;
17283;SDS011;8760;52.248;20.952;2023-03-21T09:52:25;8.20;;;6.70;;
17283;SDS011;8760;52.248;20.952;2023-03-21T09:54:58;8.20;;;6.80;;
17283;SDS011;8760;52.248;20.952;2023-03-21T09:57:29;8.33;;;6.93;;
17283;SDS011;8760;52.248;20.952;2023-03-21T09:59:59;9.17;;;7.73;;
17283;SDS011;8760;52.248;20.952;2023-03-21T10:02:36;10.47;;;8.50;;
17283;SDS011;8760;52.248;20.952;2023-03-21T10:05:10;8.73;;;7.47;;
17283;SDS011;8760;52.248;20.952;2023-03-21T10:07:44;9.17;;;7.17;;
17283;SDS011;8760;52.248;20.952;2023-03-21T10:10:18;8.20;;;6.93;;
17283;SDS011;8760;52.248;20.952;2023-03-21T10:12:47;8.00;;;7.20;;
17283;SDS011;8760;52.248;20.952;2023-03-21T10:15:18;7.83;;;6.63;;
17283;SDS011;8760;52.248;20.952;2023-03-21T10:17:48;9.20;;;6.47;;
17283;SDS011;8760;52.248;20.952;2023-03-21T10:20:20;6.60;;;5.90;;
17283;SDS011;8760;52.248;20.952;2023-03-21T10:22:50;6.43;;;5.73;;
17283;SDS011;8760;52.248;20.952;2023-03-21T10:25:20;7.43;;;5.60;;
17283;SDS011;8760;52.248;20.952;2023-03-21T10:27:50;4.50;;;3.77;;
17283;SDS011;8760;52.248;20.952;2023-03-21T10:30:19;5.67;;;5.03;;
17283;SDS011;8760;52.248;20.952;2023-03-21T10:32:52;5.63;;;2.97;;
17283;SDS011;8760;52.248;20.952;2023-03-21T10:35:23;4.17;;;3.20;;
17283;SDS011;8760;52.248;20.952;2023-03-21T10:37:51;6.83;;;3.20;;
17283;SDS011;8760;52.248;20.952;2023-03-21T10:40:18;3.20;;;2.80;;
17283;SDS011;8760;52.248;20.952;2023-03-21T10:42:45;3.57;;;3.07;;
17283;SDS011;8760;52.248;20.952;2023-03-21T10:45:13;3.30;;;3.00;;
17283;SDS011;8760;52.248;20.952;2023-03-21T10:47:42;3.83;;;3.20;;
17283;SDS011;8760;52.248;20.952;2023-03-21T10:50:14;4.20;;;3.33;;
17283;SDS011;8760;52.248;20.952;2023-03-21T10:52:45;3.10;;;2.80;;
17283;SDS011;8760;52.248;20.952;2023-03-21T10:55:17;4.33;;;3.03;;
17283;SDS011;8760;52.248;20.952;2023-03-21T10:57:51;4.03;;;3.47;;
17283;SDS011;8760;52.248;20.952;2023-03-21T11:00:23;4.07;;;3.60;;
17283;SDS011;8760;52.248;20.952;2023-03-21T11:02:53;4.70;;;3.93;;
17283;SDS011;8760;52.248;20.952;2023-03-21T11:05:23;3.97;;;3.60;;
17283;SDS011;8760;52.248;20.952;2023-03-21T11:07:56;9.73;;;4.20;;
17283;SDS011;8760;52.248;20.952;2023-03-21T11:10:28;10.43;;;5.13;;
17283;SDS011;8760;52.248;20.952;2023-03-21T11:12:58;7.27;;;4.27;;
17283;SDS011;8760;52.248;20.952;2023-03-21T11:15:30;5.27;;;4.17;;
17283;SDS011;8760;52.248;20.952;2023-03-21T11:17:58;4.43;;;4.03;;
17283;SDS011;8760;52.248;20.952;2023-03-21T11:20:40;4.20;;;3.80;;
17283;SDS011;8760;52.248;20.952;2023-03-21T11:23:10;4.57;;;3.80;;
17283;SDS011;8760;52.248;20.952;2023-03-21T11:25:40;5.07;;;4.30;;
17283;SDS011;8760;52.248;20.952;2023-03-21T11:28:08;8.90;;;4.87;;
17283;SDS011;8760;52.248;20.952;2023-03-21T11:30:47;8.80;;;4.90;;
17283;SDS011;8760;52.248;20.952;2023-03-21T11:33:16;5.10;;;4.60;;
17283;SDS011;8760;52.248;20.952;2023-03-21T11:35:56;10.57;;;4.77;;
17283;SDS011;8760;52.248;20.952;2023-03-21T11:38:25;4.63;;;4.13;;
17283;SDS011;8760;52.248;20.952;2023-03-21T11:40:57;6.05;;;4.38;;
17283;SDS011;8760;52.248;20.952;2023-03-21T11:43:27;4.20;;;3.80;;
17283;SDS011;8760;52.248;20.952;2023-03-21T11:45:56;4.15;;;3.75;;
17283;SDS011;8760;52.248;20.952;2023-03-21T11:48:24;4.25;;;3.85;;
17283;SDS011;8760;52.248;20.952;2023-03-21T11:50:54;5.22;;;4.72;;
17283;SDS011;8760;52.248;20.952;2023-03-21T11:53:33;5.32;;;4.82;;
17283;SDS011;8760;52.248;20.952;2023-03-21T11:56:14;5.00;;;4.50;;
17283;SDS011;8760;52.248;20.952;2023-03-21T11:58:52;4.97;;;4.47;;
17283;SDS011;8760;52.248;20.952;2023-03-21T12:01:32;5.17;;;4.67;;
17283;SDS011;8760;52.248;20.952;2023-03-21T12:04:17;5.27;;;4.73;;
17283;SDS011;8760;52.248;20.952;2023-03-21T12:06:50;4.93;;;4.37;;
17283;SDS011;8760;52.248;20.952;2023-03-21T12:09:25;4.37;;;3.97;;
17283;SDS011;8760;52.248;20.952;2023-03-21T12:12:08;4.40;;;4.00;;
17283;SDS011;8760;52.248;20.952;2023-03-21T12:14:46;50.37;;;22.73;;
17283;SDS011;8760;52.248;20.952;2023-03-21T12:17:25;19.93;;;12.07;;
17283;SDS011;8760;52.248;20.952;2023-03-21T12:20:02;184.37;;;81.43;;
17283;SDS011;8760;52.248;20.952;2023-03-21T12:22:45;54.10;;;24.90;;
17283;SDS011;8760;52.248;20.952;2023-03-21T12:25:18;11.33;;;8.43;;
17283;SDS011;8760;52.248;20.952;2023-03-21T12:27:55;5.53;;;5.03;;
17283;SDS011;8760;52.248;20.952;2023-03-21T12:30:32;4.73;;;4.23;;
17283;SDS011;8760;52.248;20.952;2023-03-21T12:33:13;27.43;;;21.47;;
17283;SDS011;8760;52.248;20.952;2023-03-21T12:36:13;87.13;;;36.10;;
17283;SDS011;8760;52.248;20.952;2023-03-21T12:38:50;9.80;;;8.60;;
17283;SDS011;8760;52.248;20.952;2023-03-21T12:41:30;58.50;;;42.00;;
17283;SDS011;8760;52.248;20.952;2023-03-21T12:44:02;17.73;;;10.60;;
17283;SDS011;8760;52.248;20.952;2023-03-21T12:46:31;8.30;;;4.80;;
17283;SDS011;8760;52.248;20.952;2023-03-21T12:49:04;4.67;;;4.27;;
17283;SDS011;8760;52.248;20.952;2023-03-21T12:51:40;5.50;;;4.27;;
17283;SDS011;8760;52.248;20.952;2023-03-21T12:54:12;4.97;;;4.47;;
17283;SDS011;8760;52.248;20.952;2023-03-21T12:56:47;4.27;;;3.87;;
17283;SDS011;8760;52.248;20.952;2023-03-21T12:59:21;5.70;;;4.10;;
17283;SDS011;8760;52.248;20.952;2023-03-21T13:01:56;4.47;;;4.07;;
17283;SDS011;8760;52.248;20.952;2023-03-21T13:04:33;4.20;;;3.80;;
17283;SDS011;8760;52.248;20.952;2023-03-21T13:07:06;5.07;;;3.93;;
17283;SDS011;8760;52.248;20.952;2023-03-21T13:09:36;4.00;;;3.60;;
17283;SDS011;8760;52.248;20.952;2023-03-21T13:12:08;5.23;;;3.90;;
17283;SDS011;8760;52.248;20.952;2023-03-21T13:14:47;3.70;;;3.40;;
17283;SDS011;8760;52.248;20.952;2023-03-21T13:17:26;4.57;;;3.70;;
17283;SDS011;8760;52.248;20.952;2023-03-21T13:20:00;4.17;;;3.77;;
17283;SDS011;8760;52.248;20.952;2023-03-21T13:22:33;4.40;;;4.00;;
17283;SDS011;8760;52.248;20.952;2023-03-21T13:25:02;3.90;;;3.60;;
17283;SDS011;8760;52.248;20.952;2023-03-21T13:27:32;4.10;;;3.37;;
17283;SDS011;8760;52.248;20.952;2023-03-21T13:30:04;3.90;;;3.50;;
17283;SDS011;8760;52.248;20.952;2023-03-21T13:32:33;5.07;;;3.70;;
17283;SDS011;8760;52.248;20.952;2023-03-21T13:35:11;4.73;;;3.83;;
17283;SDS011;8760;52.248;20.952;2023-03-21T13:37:41;3.60;;;3.30;;
17283;SDS011;8760;52.248;20.952;2023-03-21T13:40:19;4.60;;;3.37;;
17283;SDS011;8760;52.248;20.952;2023-03-21T13:42:50;3.73;;;3.00;;
17283;SDS011;8760;52.248;20.952;2023-03-21T13:45:24;4.70;;;3.70;;
17283;SDS011;8760;52.248;20.952;2023-03-21T13:47:53;6.13;;;3.30;;
17283;SDS011;8760;52.248;20.952;2023-03-21T13:50:22;4.43;;;3.73;;
17283;SDS011;8760;52.248;20.952;2023-03-21T13:55:26;3.73;;;3.40;;
17283;SDS011;8760;52.248;20.952;2023-03-21T13:57:54;3.47;;;3.17;;
17283;SDS011;8760;52.248;20.952;2023-03-21T14:00:26;4.40;;;3.93;;
17283;SDS011;8760;52.248;20.952;2023-03-21T14:02:56;4.03;;;3.60;;
17283;SDS011;8760;52.248;20.952;2023-03-21T14:05:25;5.23;;;4.00;;
17283;SDS011;8760;52.248;20.952;2023-03-21T14:07:54;3.87;;;3.57;;
17283;SDS011;8760;52.248;20.952;2023-03-21T14:10:27;5.87;;;3.83;;
17283;SDS011;8760;52.248;20.952;2023-03-21T14:12:58;4.27;;;3.87;;
17283;SDS011;8760;52.248;20.952;2023-03-21T14:15:28;4.57;;;3.97;;
17283;SDS011;8760;52.248;20.952;2023-03-21T14:17:59;4.00;;;3.63;;
17283;SDS011;8760;52.248;20.952;2023-03-21T14:20:28;5.17;;;3.70;;
17283;SDS011;8760;52.248;20.952;2023-03-21T14:22:56;4.43;;;3.93;;
17283;SDS011;8760;52.248;20.952;2023-03-21T14:25:24;4.13;;;3.73;;
17283;SDS011;8760;52.248;20.952;2023-03-21T14:27:59;8.70;;;4.03;;
17283;SDS011;8760;52.248;20.952;2023-03-21T14:30:30;4.07;;;3.55;;
17283;SDS011;8760;52.248;20.952;2023-03-21T14:32:59;4.13;;;3.75;;
17283;SDS011;8760;52.248;20.952;2023-03-21T14:35:31;4.18;;;3.53;;
17283;SDS011;8760;52.248;20.952;2023-03-21T14:37:59;3.92;;;3.60;;
17283;SDS011;8760;52.248;20.952;2023-03-21T14:40:28;5.38;;;4.10;;
17283;SDS011;8760;52.248;20.952;2023-03-21T14:42:55;5.13;;;4.57;;
17283;SDS011;8760;52.248;20.952;2023-03-21T14:45:24;4.90;;;3.83;;
17283;SDS011;8760;52.248;20.952;2023-03-21T14:47:55;4.00;;;3.60;;
17283;SDS011;8760;52.248;20.952;2023-03-21T14:50:23;4.28;;;3.65;;
17283;SDS011;8760;52.248;20.952;2023-03-21T14:52:57;5.05;;;4.03;;
17283;SDS011;8760;52.248;20.952;2023-03-21T14:55:25;4.90;;;4.33;;
17283;SDS011;8760;52.248;20.952;2023-03-21T14:57:52;4.00;;;3.60;;
17283;SDS011;8760;52.248;20.952;2023-03-21T15:00:22;5.27;;;3.70;;
17283;SDS011;8760;52.248;20.952;2023-03-21T15:02:50;5.63;;;3.47;;